Terminal Aerodrome Forecast
Issued by NWS

Home | Current Version | Previous Version | Text Only | Print | Product List | Glossary On
Versions: 1 2 3 4 5 6 7 8 9 10 11 12 13 14 15 16 17 18
041
FTUS41 KBTV 232326
TAFMPV
TAF
KMPV 232326Z 2400/2424 VRB04KT P6SM SCT025 BKN110
     FM240300 00000KT 5SM BR BKN020
     FM240500 00000KT 2SM BR SCT002
     FM240700 00000KT 1/2SM FG BKN002
     FM241230 VRB03KT 3SM BR BKN010
     FM241330 32006KT P6SM SCT030=

USA.gov is the U.S. government's official web portal to all federal, state and local government web resources and services.